sensor_id;sensor_type;location;lat;lon;timestamp;temperature;humidity
4312;DHT22;2169;49.086;9.284;2023-06-04T00:02:08;19.00;37.40
4312;DHT22;2169;49.086;9.284;2023-06-04T00:04:36;19.00;37.50
4312;DHT22;2169;49.086;9.284;2023-06-04T00:07:03;18.90;37.40
4312;DHT22;2169;49.086;9.284;2023-06-04T00:09:31;18.80;37.30
4312;DHT22;2169;49.086;9.284;2023-06-04T00:11:59;18.80;37.40
4312;DHT22;2169;49.086;9.284;2023-06-04T00:14:27;18.80;37.40
4312;DHT22;2169;49.086;9.284;2023-06-04T00:16:53;18.70;37.40
4312;DHT22;2169;49.086;9.284;2023-06-04T00:19:20;18.60;37.40
4312;DHT22;2169;49.086;9.284;2023-06-04T00:21:47;18.60;37.50
4312;DHT22;2169;49.086;9.284;2023-06-04T00:24:14;18.50;37.50
4312;DHT22;2169;49.086;9.284;2023-06-04T00:26:42;18.50;37.50
4312;DHT22;2169;49.086;9.284;2023-06-04T00:29:09;18.40;37.50
4312;DHT22;2169;49.086;9.284;2023-06-04T00:31:35;18.40;37.60
4312;DHT22;2169;49.086;9.284;2023-06-04T00:34:03;18.30;37.60
4312;DHT22;2169;49.086;9.284;2023-06-04T00:36:30;18.30;37.70
4312;DHT22;2169;49.086;9.284;2023-06-04T00:38:57;18.30;37.70
4312;DHT22;2169;49.086;9.284;2023-06-04T00:41:24;18.30;37.60
4312;DHT22;2169;49.086;9.284;2023-06-04T00:43:53;18.30;37.70
4312;DHT22;2169;49.086;9.284;2023-06-04T00:46:23;18.20;37.60
4312;DHT22;2169;49.086;9.284;2023-06-04T00:48:50;18.20;37.70
4312;DHT22;2169;49.086;9.284;2023-06-04T00:51:18;18.10;37.60
4312;DHT22;2169;49.086;9.284;2023-06-04T00:53:45;18.10;37.70
4312;DHT22;2169;49.086;9.284;2023-06-04T00:56:13;18.00;37.70
4312;DHT22;2169;49.086;9.284;2023-06-04T00:58:39;18.00;37.80
4312;DHT22;2169;49.086;9.284;2023-06-04T01:01:15;17.90;37.80
4312;DHT22;2169;49.086;9.284;2023-06-04T01:03:47;17.90;37.90
4312;DHT22;2169;49.086;9.284;2023-06-04T01:06:21;17.80;37.80
4312;DHT22;2169;49.086;9.284;2023-06-04T01:08:49;17.80;37.80
4312;DHT22;2169;49.086;9.284;2023-06-04T01:11:29;17.80;38.50
4312;DHT22;2169;49.086;9.284;2023-06-04T01:13:56;17.80;37.80
4312;DHT22;2169;49.086;9.284;2023-06-04T01:16:25;17.70;37.80
4312;DHT22;2169;49.086;9.284;2023-06-04T01:18:56;17.70;37.90
4312;DHT22;2169;49.086;9.284;2023-06-04T01:21:26;17.70;37.80
4312;DHT22;2169;49.086;9.284;2023-06-04T01:24:00;17.70;37.80
4312;DHT22;2169;49.086;9.284;2023-06-04T01:26:29;17.60;37.80
4312;DHT22;2169;49.086;9.284;2023-06-04T01:28:58;17.60;37.90
4312;DHT22;2169;49.086;9.284;2023-06-04T01:31:27;17.60;37.80
4312;DHT22;2169;49.086;9.284;2023-06-04T01:33:58;17.50;37.80
4312;DHT22;2169;49.086;9.284;2023-06-04T01:36:25;17.50;37.80
4312;DHT22;2169;49.086;9.284;2023-06-04T01:38:52;17.40;37.80
4312;DHT22;2169;49.086;9.284;2023-06-04T01:41:19;17.40;37.80
4312;DHT22;2169;49.086;9.284;2023-06-04T01:43:46;17.40;37.80
4312;DHT22;2169;49.086;9.284;2023-06-04T01:46:12;17.30;37.70
4312;DHT22;2169;49.086;9.284;2023-06-04T01:48:40;17.30;37.70
4312;DHT22;2169;49.086;9.284;2023-06-04T01:51:07;17.30;37.80
4312;DHT22;2169;49.086;9.284;2023-06-04T01:53:34;17.20;37.80
4312;DHT22;2169;49.086;9.284;2023-06-04T01:56:01;17.20;37.80
4312;DHT22;2169;49.086;9.284;2023-06-04T01:58:28;17.20;37.90
4312;DHT22;2169;49.086;9.284;2023-06-04T02:00:54;17.10;37.80
4312;DHT22;2169;49.086;9.284;2023-06-04T02:03:26;17.10;37.80
4312;DHT22;2169;49.086;9.284;2023-06-04T02:05:54;17.10;37.80
4312;DHT22;2169;49.086;9.284;2023-06-04T02:08:21;17.10;37.80
4312;DHT22;2169;49.086;9.284;2023-06-04T02:10:52;17.00;37.80
4312;DHT22;2169;49.086;9.284;2023-06-04T02:13:19;17.00;37.90
4312;DHT22;2169;49.086;9.284;2023-06-04T02:15:45;17.00;38.00
4312;DHT22;2169;49.086;9.284;2023-06-04T02:18:14;16.90;37.90
4312;DHT22;2169;49.086;9.284;2023-06-04T02:20:42;16.90;38.10
4312;DHT22;2169;49.086;9.284;2023-06-04T02:23:10;16.90;38.20
4312;DHT22;2169;49.086;9.284;2023-06-04T02:25:37;16.80;38.30
4312;DHT22;2169;49.086;9.284;2023-06-04T02:28:04;16.80;38.50
4312;DHT22;2169;49.086;9.284;2023-06-04T02:30:31;16.80;38.60
4312;DHT22;2169;49.086;9.284;2023-06-04T02:32:58;16.70;38.60
4312;DHT22;2169;49.086;9.284;2023-06-04T02:35:26;16.70;38.70
4312;DHT22;2169;49.086;9.284;2023-06-04T02:37:53;16.60;38.60
4312;DHT22;2169;49.086;9.284;2023-06-04T02:40:23;16.60;38.70
4312;DHT22;2169;49.086;9.284;2023-06-04T02:42:50;16.50;38.70
4312;DHT22;2169;49.086;9.284;2023-06-04T02:45:17;16.50;38.50
4312;DHT22;2169;49.086;9.284;2023-06-04T02:47:43;16.40;38.50
4312;DHT22;2169;49.086;9.284;2023-06-04T02:50:11;16.40;38.50
4312;DHT22;2169;49.086;9.284;2023-06-04T02:52:38;16.30;38.30
4312;DHT22;2169;49.086;9.284;2023-06-04T02:55:06;16.30;38.30
4312;DHT22;2169;49.086;9.284;2023-06-04T02:57:35;16.20;38.30
4312;DHT22;2169;49.086;9.284;2023-06-04T03:00:03;16.20;38.30
4312;DHT22;2169;49.086;9.284;2023-06-04T03:02:38;16.10;38.20
4312;DHT22;2169;49.086;9.284;2023-06-04T03:05:05;16.10;38.20
4312;DHT22;2169;49.086;9.284;2023-06-04T03:07:32;16.00;38.10
4312;DHT22;2169;49.086;9.284;2023-06-04T03:09:59;16.00;38.20
4312;DHT22;2169;49.086;9.284;2023-06-04T03:12:26;16.00;38.20
4312;DHT22;2169;49.086;9.284;2023-06-04T03:14:54;16.00;38.20
4312;DHT22;2169;49.086;9.284;2023-06-04T03:17:21;15.90;38.20
4312;DHT22;2169;49.086;9.284;2023-06-04T03:19:47;15.90;38.20
4312;DHT22;2169;49.086;9.284;2023-06-04T03:22:15;15.90;38.20
4312;DHT22;2169;49.086;9.284;2023-06-04T03:24:42;15.90;38.30
4312;DHT22;2169;49.086;9.284;2023-06-04T03:27:09;15.80;38.20
4312;DHT22;2169;49.086;9.284;2023-06-04T03:29:37;15.80;38.20
4312;DHT22;2169;49.086;9.284;2023-06-04T03:32:06;15.80;38.20
4312;DHT22;2169;49.086;9.284;2023-06-04T03:34:33;15.80;38.30
4312;DHT22;2169;49.086;9.284;2023-06-04T03:37:00;15.80;38.30
4312;DHT22;2169;49.086;9.284;2023-06-04T03:39:27;15.70;38.30
4312;DHT22;2169;49.086;9.284;2023-06-04T03:41:54;15.70;38.40
4312;DHT22;2169;49.086;9.284;2023-06-04T03:44:21;15.60;38.30
4312;DHT22;2169;49.086;9.284;2023-06-04T03:46:48;15.60;38.30
4312;DHT22;2169;49.086;9.284;2023-06-04T03:49:16;15.50;38.30
4312;DHT22;2169;49.086;9.284;2023-06-04T03:51:43;15.50;38.40
4312;DHT22;2169;49.086;9.284;2023-06-04T03:54:10;15.50;38.60
4312;DHT22;2169;49.086;9.284;2023-06-04T03:56:42;15.50;38.70
4312;DHT22;2169;49.086;9.284;2023-06-04T03:59:09;15.50;38.80
4312;DHT22;2169;49.086;9.284;2023-06-04T04:01:36;15.40;38.70
4312;DHT22;2169;49.086;9.284;2023-06-04T04:04:03;15.40;38.70
4312;DHT22;2169;49.086;9.284;2023-06-04T04:06:31;15.40;38.80
4312;DHT22;2169;49.086;9.284;2023-06-04T04:08:58;15.40;39.00
4312;DHT22;2169;49.086;9.284;2023-06-04T04:11:25;15.30;39.00
4312;DHT22;2169;49.086;9.284;2023-06-04T04:13:52;15.30;39.00
4312;DHT22;2169;49.086;9.284;2023-06-04T04:16:19;15.30;39.00
4312;DHT22;2169;49.086;9.284;2023-06-04T04:18:45;15.30;39.00
4312;DHT22;2169;49.086;9.284;2023-06-04T04:21:12;15.30;39.00
4312;DHT22;2169;49.086;9.284;2023-06-04T04:23:40;15.30;39.00
4312;DHT22;2169;49.086;9.284;2023-06-04T04:26:08;15.30;39.10
4312;DHT22;2169;49.086;9.284;2023-06-04T04:28:35;15.30;39.10
4312;DHT22;2169;49.086;9.284;2023-06-04T04:31:02;15.30;39.10
4312;DHT22;2169;49.086;9.284;2023-06-04T04:33:29;15.30;39.00
4312;DHT22;2169;49.086;9.284;2023-06-04T04:36:02;15.30;39.00
4312;DHT22;2169;49.086;9.284;2023-06-04T04:38:29;15.30;39.10
4312;DHT22;2169;49.086;9.284;2023-06-04T04:41:00;15.30;39.20
4312;DHT22;2169;49.086;9.284;2023-06-04T04:43:30;15.30;39.20
4312;DHT22;2169;49.086;9.284;2023-06-04T04:45:57;15.30;39.30
4312;DHT22;2169;49.086;9.284;2023-06-04T04:48:25;15.30;39.30
4312;DHT22;2169;49.086;9.284;2023-06-04T04:50:52;15.30;39.30
4312;DHT22;2169;49.086;9.284;2023-06-04T04:53:19;15.30;39.30
4312;DHT22;2169;49.086;9.284;2023-06-04T04:55:46;15.30;39.30
4312;DHT22;2169;49.086;9.284;2023-06-04T04:58:14;15.30;39.30
4312;DHT22;2169;49.086;9.284;2023-06-04T05:00:41;15.30;39.40
4312;DHT22;2169;49.086;9.284;2023-06-04T05:03:08;15.30;39.40
4312;DHT22;2169;49.086;9.284;2023-06-04T05:05:35;15.30;39.40
4312;DHT22;2169;49.086;9.284;2023-06-04T05:08:03;15.40;39.50
4312;DHT22;2169;49.086;9.284;2023-06-04T05:10:30;15.40;39.50
4312;DHT22;2169;49.086;9.284;2023-06-04T05:12:58;15.40;39.50
4312;DHT22;2169;49.086;9.284;2023-06-04T05:15:26;15.40;39.60
4312;DHT22;2169;49.086;9.284;2023-06-04T05:17:53;15.40;39.60
4312;DHT22;2169;49.086;9.284;2023-06-04T05:20:21;15.40;39.60
4312;DHT22;2169;49.086;9.284;2023-06-04T05:22:49;15.40;39.70
4312;DHT22;2169;49.086;9.284;2023-06-04T05:25:17;15.40;39.80
4312;DHT22;2169;49.086;9.284;2023-06-04T05:27:44;15.40;39.80
4312;DHT22;2169;49.086;9.284;2023-06-04T05:30:11;15.40;39.90
4312;DHT22;2169;49.086;9.284;2023-06-04T05:32:40;15.40;40.00
4312;DHT22;2169;49.086;9.284;2023-06-04T05:35:08;15.50;40.20
4312;DHT22;2169;49.086;9.284;2023-06-04T05:37:35;15.50;40.20
4312;DHT22;2169;49.086;9.284;2023-06-04T05:40:04;15.60;40.30
4312;DHT22;2169;49.086;9.284;2023-06-04T05:42:32;15.70;40.50
4312;DHT22;2169;49.086;9.284;2023-06-04T05:44:59;15.70;40.50
4312;DHT22;2169;49.086;9.284;2023-06-04T05:47:27;15.90;40.70
4312;DHT22;2169;49.086;9.284;2023-06-04T05:49:57;16.00;40.70
4312;DHT22;2169;49.086;9.284;2023-06-04T05:52:23;16.10;40.70
4312;DHT22;2169;49.086;9.284;2023-06-04T05:54:50;16.20;40.80
4312;DHT22;2169;49.086;9.284;2023-06-04T05:57:17;16.40;40.80
4312;DHT22;2169;49.086;9.284;2023-06-04T05:59:44;16.50;40.80
4312;DHT22;2169;49.086;9.284;2023-06-04T06:02:11;16.60;40.70
4312;DHT22;2169;49.086;9.284;2023-06-04T06:04:38;16.80;40.80
4312;DHT22;2169;49.086;9.284;2023-06-04T06:07:06;17.00;40.80
4312;DHT22;2169;49.086;9.284;2023-06-04T06:09:33;17.10;40.60
4312;DHT22;2169;49.086;9.284;2023-06-04T06:12:01;17.30;40.60
4312;DHT22;2169;49.086;9.284;2023-06-04T06:14:27;17.40;40.40
4312;DHT22;2169;49.086;9.284;2023-06-04T06:16:54;17.50;40.30
4312;DHT22;2169;49.086;9.284;2023-06-04T06:19:21;17.70;40.30
4312;DHT22;2169;49.086;9.284;2023-06-04T06:21:48;17.90;40.20
4312;DHT22;2169;49.086;9.284;2023-06-04T06:24:16;18.00;40.00
4312;DHT22;2169;49.086;9.284;2023-06-04T06:26:43;18.20;40.00
4312;DHT22;2169;49.086;9.284;2023-06-04T06:29:10;18.30;39.90
4312;DHT22;2169;49.086;9.284;2023-06-04T06:31:36;18.50;39.90
4312;DHT22;2169;49.086;9.284;2023-06-04T06:34:03;18.60;39.50
4312;DHT22;2169;49.086;9.284;2023-06-04T06:36:30;18.80;39.50
4312;DHT22;2169;49.086;9.284;2023-06-04T06:38:58;19.00;39.40
4312;DHT22;2169;49.086;9.284;2023-06-04T06:41:26;19.20;39.30
4312;DHT22;2169;49.086;9.284;2023-06-04T06:43:53;19.30;39.00
4312;DHT22;2169;49.086;9.284;2023-06-04T06:46:20;19.50;38.90
4312;DHT22;2169;49.086;9.284;2023-06-04T06:48:47;19.60;38.80
4312;DHT22;2169;49.086;9.284;2023-06-04T06:51:14;19.80;38.80
4312;DHT22;2169;49.086;9.284;2023-06-04T06:53:41;20.00;38.50
4312;DHT22;2169;49.086;9.284;2023-06-04T06:56:08;20.10;38.30
4312;DHT22;2169;49.086;9.284;2023-06-04T06:58:36;20.20;38.10
4312;DHT22;2169;49.086;9.284;2023-06-04T07:01:03;20.30;38.00
4312;DHT22;2169;49.086;9.284;2023-06-04T07:03:31;20.40;37.90
4312;DHT22;2169;49.086;9.284;2023-06-04T07:05:58;20.50;37.80
4312;DHT22;2169;49.086;9.284;2023-06-04T07:08:25;20.60;37.80
4312;DHT22;2169;49.086;9.284;2023-06-04T07:10:52;20.90;37.90
4312;DHT22;2169;49.086;9.284;2023-06-04T07:13:18;21.10;37.70
4312;DHT22;2169;49.086;9.284;2023-06-04T07:15:46;21.30;37.50
4312;DHT22;2169;49.086;9.284;2023-06-04T07:18:13;21.60;37.50
4312;DHT22;2169;49.086;9.284;2023-06-04T07:20:40;21.70;37.20
4312;DHT22;2169;49.086;9.284;2023-06-04T07:23:07;21.90;36.80
4312;DHT22;2169;49.086;9.284;2023-06-04T07:25:34;22.00;36.60
4312;DHT22;2169;49.086;9.284;2023-06-04T07:28:01;22.10;36.20
4312;DHT22;2169;49.086;9.284;2023-06-04T07:30:29;22.20;36.20
4312;DHT22;2169;49.086;9.284;2023-06-04T07:32:58;22.40;36.10
4312;DHT22;2169;49.086;9.284;2023-06-04T07:35:25;22.50;36.00
4312;DHT22;2169;49.086;9.284;2023-06-04T07:37:52;22.60;35.80
4312;DHT22;2169;49.086;9.284;2023-06-04T07:40:19;22.70;35.50
4312;DHT22;2169;49.086;9.284;2023-06-04T07:42:46;22.80;35.40
4312;DHT22;2169;49.086;9.284;2023-06-04T07:45:14;22.90;35.30
4312;DHT22;2169;49.086;9.284;2023-06-04T07:47:40;23.10;35.20
4312;DHT22;2169;49.086;9.284;2023-06-04T07:50:09;23.30;35.30
4312;DHT22;2169;49.086;9.284;2023-06-04T07:52:36;23.40;35.00
4312;DHT22;2169;49.086;9.284;2023-06-04T07:55:03;23.60;34.90
4312;DHT22;2169;49.086;9.284;2023-06-04T07:57:30;23.70;34.80
4312;DHT22;2169;49.086;9.284;2023-06-04T07:59:57;23.90;34.80
4312;DHT22;2169;49.086;9.284;2023-06-04T08:02:24;24.10;34.90
4312;DHT22;2169;49.086;9.284;2023-06-04T08:04:51;24.20;34.50
4312;DHT22;2169;49.086;9.284;2023-06-04T08:07:19;24.30;34.30
4312;DHT22;2169;49.086;9.284;2023-06-04T08:09:46;24.50;34.10
4312;DHT22;2169;49.086;9.284;2023-06-04T08:12:13;24.50;33.90
4312;DHT22;2169;49.086;9.284;2023-06-04T08:14:41;24.60;33.80
4312;DHT22;2169;49.086;9.284;2023-06-04T08:17:08;24.70;33.50
4312;DHT22;2169;49.086;9.284;2023-06-04T08:22:01;24.80;33.50
4312;DHT22;2169;49.086;9.284;2023-06-04T08:24:30;24.80;33.40
4312;DHT22;2169;49.086;9.284;2023-06-04T08:26:58;25.00;33.40
4312;DHT22;2169;49.086;9.284;2023-06-04T08:29:25;25.10;33.00
4312;DHT22;2169;49.086;9.284;2023-06-04T08:31:51;25.20;33.00
4312;DHT22;2169;49.086;9.284;2023-06-04T08:34:18;25.30;32.70
4312;DHT22;2169;49.086;9.284;2023-06-04T08:36:46;25.40;32.60
4312;DHT22;2169;49.086;9.284;2023-06-04T08:39:13;25.50;32.60
4312;DHT22;2169;49.086;9.284;2023-06-04T08:41:45;25.60;32.50
4312;DHT22;2169;49.086;9.284;2023-06-04T08:44:13;25.80;32.40
4312;DHT22;2169;49.086;9.284;2023-06-04T08:46:43;25.90;32.40
4312;DHT22;2169;49.086;9.284;2023-06-04T08:49:12;26.10;32.20
4312;DHT22;2169;49.086;9.284;2023-06-04T08:51:39;26.20;31.80
4312;DHT22;2169;49.086;9.284;2023-06-04T08:54:08;26.40;31.80
4312;DHT22;2169;49.086;9.284;2023-06-04T08:56:36;26.40;31.10
4312;DHT22;2169;49.086;9.284;2023-06-04T08:59:06;26.30;30.40
4312;DHT22;2169;49.086;9.284;2023-06-04T09:01:33;26.30;30.50
4312;DHT22;2169;49.086;9.284;2023-06-04T09:04:04;26.30;30.60
4312;DHT22;2169;49.086;9.284;2023-06-04T09:06:32;26.30;30.60
4312;DHT22;2169;49.086;9.284;2023-06-04T09:09:02;26.30;30.30
4312;DHT22;2169;49.086;9.284;2023-06-04T09:11:35;26.20;30.10
4312;DHT22;2169;49.086;9.284;2023-06-04T09:14:06;26.20;30.10
4312;DHT22;2169;49.086;9.284;2023-06-04T09:16:42;26.20;30.00
4312;DHT22;2169;49.086;9.284;2023-06-04T09:19:09;26.30;29.90
4312;DHT22;2169;49.086;9.284;2023-06-04T09:21:49;26.30;29.80
4312;DHT22;2169;49.086;9.284;2023-06-04T09:24:16;26.40;29.50
4312;DHT22;2169;49.086;9.284;2023-06-04T09:26:43;26.40;29.50
4312;DHT22;2169;49.086;9.284;2023-06-04T09:29:12;26.40;29.50
4312;DHT22;2169;49.086;9.284;2023-06-04T09:31:39;26.50;29.40
4312;DHT22;2169;49.086;9.284;2023-06-04T09:34:06;26.50;29.30
4312;DHT22;2169;49.086;9.284;2023-06-04T09:36:33;26.50;29.10
4312;DHT22;2169;49.086;9.284;2023-06-04T09:39:02;26.50;29.20
4312;DHT22;2169;49.086;9.284;2023-06-04T09:41:30;26.60;29.10
4312;DHT22;2169;49.086;9.284;2023-06-04T09:44:01;26.60;28.90
4312;DHT22;2169;49.086;9.284;2023-06-04T09:46:30;26.60;28.60
4312;DHT22;2169;49.086;9.284;2023-06-04T09:49:02;26.50;28.00
4312;DHT22;2169;49.086;9.284;2023-06-04T09:51:29;26.50;28.20
4312;DHT22;2169;49.086;9.284;2023-06-04T09:53:57;26.50;28.50
4312;DHT22;2169;49.086;9.284;2023-06-04T09:56:25;26.60;28.50
4312;DHT22;2169;49.086;9.284;2023-06-04T09:58:59;26.60;28.00
4312;DHT22;2169;49.086;9.284;2023-06-04T10:01:29;26.70;28.50
4312;DHT22;2169;49.086;9.284;2023-06-04T10:04:03;26.80;27.90
4312;DHT22;2169;49.086;9.284;2023-06-04T10:06:33;26.90;27.80
4312;DHT22;2169;49.086;9.284;2023-06-04T10:09:05;27.00;27.50
4312;DHT22;2169;49.086;9.284;2023-06-04T10:11:35;27.00;27.40
4312;DHT22;2169;49.086;9.284;2023-06-04T10:14:07;27.10;27.20
4312;DHT22;2169;49.086;9.284;2023-06-04T10:16:40;27.20;27.10
4312;DHT22;2169;49.086;9.284;2023-06-04T10:19:08;27.20;26.90
4312;DHT22;2169;49.086;9.284;2023-06-04T10:21:35;27.30;27.00
4312;DHT22;2169;49.086;9.284;2023-06-04T10:24:03;27.40;27.20
4312;DHT22;2169;49.086;9.284;2023-06-04T10:26:32;27.50;26.50
4312;DHT22;2169;49.086;9.284;2023-06-04T10:29:01;27.70;26.40
4312;DHT22;2169;49.086;9.284;2023-06-04T10:31:28;27.80;26.00
4312;DHT22;2169;49.086;9.284;2023-06-04T10:33:57;27.80;25.90
4312;DHT22;2169;49.086;9.284;2023-06-04T10:36:24;27.90;25.90
4312;DHT22;2169;49.086;9.284;2023-06-04T10:38:53;28.10;25.80
4312;DHT22;2169;49.086;9.284;2023-06-04T10:41:21;28.10;25.30
4312;DHT22;2169;49.086;9.284;2023-06-04T10:43:49;28.00;25.10
4312;DHT22;2169;49.086;9.284;2023-06-04T10:46:18;28.00;25.40
4312;DHT22;2169;49.086;9.284;2023-06-04T10:48:46;28.00;25.20
4312;DHT22;2169;49.086;9.284;2023-06-04T10:51:16;27.90;25.10
4312;DHT22;2169;49.086;9.284;2023-06-04T10:53:43;27.90;25.20
4312;DHT22;2169;49.086;9.284;2023-06-04T10:56:10;28.00;25.20
4312;DHT22;2169;49.086;9.284;2023-06-04T10:58:37;28.10;25.10
4312;DHT22;2169;49.086;9.284;2023-06-04T11:01:03;28.10;25.10
4312;DHT22;2169;49.086;9.284;2023-06-04T11:03:36;28.20;25.10
4312;DHT22;2169;49.086;9.284;2023-06-04T11:06:16;28.20;24.90
4312;DHT22;2169;49.086;9.284;2023-06-04T11:08:43;28.20;24.90
4312;DHT22;2169;49.086;9.284;2023-06-04T11:11:11;28.10;25.10
4312;DHT22;2169;49.086;9.284;2023-06-04T11:13:39;28.10;25.00
4312;DHT22;2169;49.086;9.284;2023-06-04T11:16:14;28.20;24.90
4312;DHT22;2169;49.086;9.284;2023-06-04T11:18:42;28.20;24.70
4312;DHT22;2169;49.086;9.284;2023-06-04T11:21:09;28.10;24.40
4312;DHT22;2169;49.086;9.284;2023-06-04T11:23:42;28.00;24.50
4312;DHT22;2169;49.086;9.284;2023-06-04T11:26:09;28.00;24.60
4312;DHT22;2169;49.086;9.284;2023-06-04T11:28:36;28.00;24.60
4312;DHT22;2169;49.086;9.284;2023-06-04T11:31:05;28.10;24.60
4312;DHT22;2169;49.086;9.284;2023-06-04T11:33:42;28.10;24.60
4312;DHT22;2169;49.086;9.284;2023-06-04T11:36:10;28.20;24.50
4312;DHT22;2169;49.086;9.284;2023-06-04T11:38:37;28.20;24.50
4312;DHT22;2169;49.086;9.284;2023-06-04T11:41:06;28.20;24.30
4312;DHT22;2169;49.086;9.284;2023-06-04T11:43:33;28.20;24.30
4312;DHT22;2169;49.086;9.284;2023-06-04T11:46:05;28.20;24.10
4312;DHT22;2169;49.086;9.284;2023-06-04T11:48:33;28.30;24.20
4312;DHT22;2169;49.086;9.284;2023-06-04T11:51:06;28.40;24.20
4312;DHT22;2169;49.086;9.284;2023-06-04T11:53:33;28.40;24.00
4312;DHT22;2169;49.086;9.284;2023-06-04T11:56:01;28.30;23.90
4312;DHT22;2169;49.086;9.284;2023-06-04T11:58:30;28.30;24.10
4312;DHT22;2169;49.086;9.284;2023-06-04T12:00:58;28.30;24.00
4312;DHT22;2169;49.086;9.284;2023-06-04T12:03:35;28.40;24.20
4312;DHT22;2169;49.086;9.284;2023-06-04T12:06:11;28.50;24.00
4312;DHT22;2169;49.086;9.284;2023-06-04T12:08:46;28.50;23.90
4312;DHT22;2169;49.086;9.284;2023-06-04T12:11:25;28.50;24.10
4312;DHT22;2169;49.086;9.284;2023-06-04T12:13:55;28.60;23.80
4312;DHT22;2169;49.086;9.284;2023-06-04T12:16:22;28.50;23.80
4312;DHT22;2169;49.086;9.284;2023-06-04T12:18:49;28.50;23.70
4312;DHT22;2169;49.086;9.284;2023-06-04T12:21:23;28.60;23.50
4312;DHT22;2169;49.086;9.284;2023-06-04T12:24:04;28.50;23.30
4312;DHT22;2169;49.086;9.284;2023-06-04T12:26:32;28.50;23.30
4312;DHT22;2169;49.086;9.284;2023-06-04T12:29:08;28.40;23.40
4312;DHT22;2169;49.086;9.284;2023-06-04T12:31:35;28.50;23.40
4312;DHT22;2169;49.086;9.284;2023-06-04T12:34:02;28.60;23.30
4312;DHT22;2169;49.086;9.284;2023-06-04T12:36:30;28.60;23.40
4312;DHT22;2169;49.086;9.284;2023-06-04T12:39:00;28.60;23.20
4312;DHT22;2169;49.086;9.284;2023-06-04T12:41:28;28.60;23.30
4312;DHT22;2169;49.086;9.284;2023-06-04T12:43:55;28.60;23.70
4312;DHT22;2169;49.086;9.284;2023-06-04T12:46:23;28.60;23.00
4312;DHT22;2169;49.086;9.284;2023-06-04T12:48:51;28.50;22.50
4312;DHT22;2169;49.086;9.284;2023-06-04T12:51:19;28.50;22.80
4312;DHT22;2169;49.086;9.284;2023-06-04T12:53:46;28.50;23.00
4312;DHT22;2169;49.086;9.284;2023-06-04T12:56:13;28.50;22.80
4312;DHT22;2169;49.086;9.284;2023-06-04T12:58:40;28.60;22.90
4312;DHT22;2169;49.086;9.284;2023-06-04T13:01:07;28.60;22.80
4312;DHT22;2169;49.086;9.284;2023-06-04T13:03:39;28.60;22.60
4312;DHT22;2169;49.086;9.284;2023-06-04T13:06:06;28.70;22.70
4312;DHT22;2169;49.086;9.284;2023-06-04T13:08:33;28.70;22.70
4312;DHT22;2169;49.086;9.284;2023-06-04T13:11:00;28.60;22.60
4312;DHT22;2169;49.086;9.284;2023-06-04T13:13:28;28.60;22.70
4312;DHT22;2169;49.086;9.284;2023-06-04T13:15:55;28.70;22.90
4312;DHT22;2169;49.086;9.284;2023-06-04T13:18:22;28.70;22.70
4312;DHT22;2169;49.086;9.284;2023-06-04T13:20:51;28.70;22.70
4312;DHT22;2169;49.086;9.284;2023-06-04T13:23:18;28.70;22.70
4312;DHT22;2169;49.086;9.284;2023-06-04T13:25:45;28.70;22.70
4312;DHT22;2169;49.086;9.284;2023-06-04T13:28:12;28.60;22.40
4312;DHT22;2169;49.086;9.284;2023-06-04T13:30:39;28.60;22.70
4312;DHT22;2169;49.086;9.284;2023-06-04T13:33:06;28.60;22.50
4312;DHT22;2169;49.086;9.284;2023-06-04T13:35:33;28.60;22.60
4312;DHT22;2169;49.086;9.284;2023-06-04T13:38:03;28.60;22.70
4312;DHT22;2169;49.086;9.284;2023-06-04T13:40:31;28.60;22.70
4312;DHT22;2169;49.086;9.284;2023-06-04T13:42:58;28.70;22.70
4312;DHT22;2169;49.086;9.284;2023-06-04T13:45:25;28.80;22.80
4312;DHT22;2169;49.086;9.284;2023-06-04T13:47:51;28.90;22.90
4312;DHT22;2169;49.086;9.284;2023-06-04T13:50:19;29.00;22.80
4312;DHT22;2169;49.086;9.284;2023-06-04T13:52:46;29.00;22.60
4312;DHT22;2169;49.086;9.284;2023-06-04T13:55:15;29.00;22.40
4312;DHT22;2169;49.086;9.284;2023-06-04T13:57:42;29.10;22.50
4312;DHT22;2169;49.086;9.284;2023-06-04T14:00:10;29.10;22.30
4312;DHT22;2169;49.086;9.284;2023-06-04T14:02:38;29.10;22.20
4312;DHT22;2169;49.086;9.284;2023-06-04T14:05:06;29.00;22.80
4312;DHT22;2169;49.086;9.284;2023-06-04T14:07:33;29.10;22.30
4312;DHT22;2169;49.086;9.284;2023-06-04T14:10:00;29.10;22.30
4312;DHT22;2169;49.086;9.284;2023-06-04T14:12:28;29.20;22.10
4312;DHT22;2169;49.086;9.284;2023-06-04T14:14:55;29.20;22.10
4312;DHT22;2169;49.086;9.284;2023-06-04T14:17:21;29.30;22.20
4312;DHT22;2169;49.086;9.284;2023-06-04T14:19:49;29.30;22.20
4312;DHT22;2169;49.086;9.284;2023-06-04T14:22:15;29.40;22.10
4312;DHT22;2169;49.086;9.284;2023-06-04T14:24:43;29.40;22.20
4312;DHT22;2169;49.086;9.284;2023-06-04T14:27:09;29.30;22.10
4312;DHT22;2169;49.086;9.284;2023-06-04T14:29:40;29.30;22.20
4312;DHT22;2169;49.086;9.284;2023-06-04T14:32:07;29.30;22.10
4312;DHT22;2169;49.086;9.284;2023-06-04T14:34:33;29.30;22.00
4312;DHT22;2169;49.086;9.284;2023-06-04T14:37:00;29.40;22.00
4312;DHT22;2169;49.086;9.284;2023-06-04T14:39:27;29.40;21.90
4312;DHT22;2169;49.086;9.284;2023-06-04T14:41:54;29.40;21.90
4312;DHT22;2169;49.086;9.284;2023-06-04T14:44:21;29.40;21.80
4312;DHT22;2169;49.086;9.284;2023-06-04T14:46:50;29.50;22.00
4312;DHT22;2169;49.086;9.284;2023-06-04T14:49:17;29.50;22.00
4312;DHT22;2169;49.086;9.284;2023-06-04T14:51:44;29.50;22.00
4312;DHT22;2169;49.086;9.284;2023-06-04T14:54:11;29.50;21.70
4312;DHT22;2169;49.086;9.284;2023-06-04T14:56:38;29.40;21.70
4312;DHT22;2169;49.086;9.284;2023-06-04T14:59:05;29.40;21.70
4312;DHT22;2169;49.086;9.284;2023-06-04T15:01:34;29.40;21.70
4312;DHT22;2169;49.086;9.284;2023-06-04T15:04:02;29.40;21.80
4312;DHT22;2169;49.086;9.284;2023-06-04T15:06:29;29.50;21.70
4312;DHT22;2169;49.086;9.284;2023-06-04T15:08:56;29.40;21.50
4312;DHT22;2169;49.086;9.284;2023-06-04T15:11:23;29.30;21.40
4312;DHT22;2169;49.086;9.284;2023-06-04T15:13:50;29.30;21.40
4312;DHT22;2169;49.086;9.284;2023-06-04T15:16:17;29.30;21.50
4312;DHT22;2169;49.086;9.284;2023-06-04T15:18:44;29.30;21.60
4312;DHT22;2169;49.086;9.284;2023-06-04T15:21:12;29.20;21.40
4312;DHT22;2169;49.086;9.284;2023-06-04T15:23:40;29.20;21.50
4312;DHT22;2169;49.086;9.284;2023-06-04T15:26:09;29.30;21.50
4312;DHT22;2169;49.086;9.284;2023-06-04T15:28:36;29.20;21.20
4312;DHT22;2169;49.086;9.284;2023-06-04T15:31:03;29.20;21.30
4312;DHT22;2169;49.086;9.284;2023-06-04T15:33:29;29.30;21.30
4312;DHT22;2169;49.086;9.284;2023-06-04T15:35:57;29.30;21.30
4312;DHT22;2169;49.086;9.284;2023-06-04T15:38:25;29.30;21.00
4312;DHT22;2169;49.086;9.284;2023-06-04T15:40:52;29.20;21.10
4312;DHT22;2169;49.086;9.284;2023-06-04T15:43:19;29.10;21.20
4312;DHT22;2169;49.086;9.284;2023-06-04T15:45:45;29.10;21.20
4312;DHT22;2169;49.086;9.284;2023-06-04T15:48:12;29.10;21.00
4312;DHT22;2169;49.086;9.284;2023-06-04T15:50:40;29.00;21.10
4312;DHT22;2169;49.086;9.284;2023-06-04T15:53:07;29.00;20.70
4312;DHT22;2169;49.086;9.284;2023-06-04T15:55:35;28.80;20.50
4312;DHT22;2169;49.086;9.284;2023-06-04T15:58:02;28.70;20.70
4312;DHT22;2169;49.086;9.284;2023-06-04T16:00:28;28.70;20.80
4312;DHT22;2169;49.086;9.284;2023-06-04T16:02:55;28.70;20.80
4312;DHT22;2169;49.086;9.284;2023-06-04T16:05:22;28.80;20.90
4312;DHT22;2169;49.086;9.284;2023-06-04T16:07:49;28.70;20.80
4312;DHT22;2169;49.086;9.284;2023-06-04T16:10:15;28.70;20.80